Time;durP1;ratioP1;P1;durP2;ratioP2;P2;SDS_P1;SDS_P2;PMS_P1;PMS_P2;Temp;Humidity;BMP_temperature;BMP_pressure;BME280_temperature;BME280_humidity;BME280_pressure;Samples;Min_cycle;Max_cycle;Signal;HPM_P1;HPM_P2
2023/02/15 00:01:33;;;;;;;0.00;0.00;;;;;;;11.56;47.62;101289.06;7359951;19;20048;-61
2023/02/15 00:03:59;;;;;;;0.00;0.00;;;;;;;11.72;46.79;101301.88;7353244;19;20025;-61
2023/02/15 00:06:25;;;;;;;0.00;0.00;;;;;;;11.75;47.75;101299.19;7341009;19;20010;-61
2023/02/15 00:08:50;;;;;;;0.08;0.08;;;;;;;11.76;46.58;101306.16;7351574;19;20793;-61
2023/02/15 00:11:39;;;;;;;0.00;0.00;;;;;;;11.79;46.82;101306.09;7349168;19;20010;-61
2023/02/15 00:14:18;;;;;;;0.00;0.00;;;;;;;11.81;47.62;101297.34;7350625;19;20014;-61
2023/02/15 00:16:45;;;;;;;0.00;0.00;;;;;;;11.80;46.31;101297.34;7349893;19;20840;-61
2023/02/15 00:19:12;;;;;;;0.00;0.00;;;;;;;11.82;47.33;101295.63;7352826;19;20015;-61
2023/02/15 00:21:38;;;;;;;0.00;0.00;;;;;;;11.82;46.52;101298.25;7351952;19;20022;-61
2023/02/15 00:24:06;;;;;;;0.00;0.00;;;;;;;11.83;46.32;101287.75;7348065;19;20002;-61
2023/02/15 00:26:32;;;;;;;0.00;0.00;;;;;;;11.85;46.28;101279.84;7352303;19;20025;-61
2023/02/15 00:28:59;;;;;;;0.00;0.00;;;;;;;11.86;46.03;101278.94;7351217;19;20588;-61
2023/02/15 00:31:25;;;;;;;0.00;0.00;;;;;;;11.88;47.19;101285.91;7354044;19;20019;-61
2023/02/15 00:33:51;;;;;;;0.00;0.00;;;;;;;11.89;45.86;101265.81;7354321;19;20011;-61
2023/02/15 00:36:16;;;;;;;0.00;0.00;;;;;;;11.91;45.44;101258.78;7355090;19;20592;-61
2023/02/15 00:38:41;;;;;;;0.00;0.00;;;;;;;11.93;44.74;101257.88;7356027;19;20470;-62
2023/02/15 00:41:08;;;;;;;0.00;0.00;;;;;;;11.97;44.83;101248.22;7354534;19;20011;-61
2023/02/15 00:43:34;;;;;;;0.00;0.00;;;;;;;12.01;45.63;101264.72;7350437;19;19999;-61
2023/02/15 00:46:01;;;;;;;0.00;0.00;;;;;;;12.05;45.52;101276.84;7358078;19;20461;-62
2023/02/15 00:48:26;;;;;;;0.00;0.00;;;;;;;12.07;45.32;101249.78;7351590;19;20030;-61
2023/02/15 00:50:55;;;;;;;0.00;0.00;;;;;;;12.01;45.35;101244.63;7357210;19;20097;-61
2023/02/15 00:53:21;;;;;;;0.00;0.00;;;;;;;12.10;45.52;101249.69;7354873;19;20006;-61
2023/02/15 00:55:47;;;;;;;0.00;0.00;;;;;;;12.15;45.60;101253.06;7354216;19;20132;-62
2023/02/15 00:58:14;;;;;;;0.00;0.00;;;;;;;12.15;45.40;101266.16;7358273;19;20641;-61
2023/02/15 01:00:42;;;;;;;0.00;0.00;;;;;;;12.17;45.34;101256.53;7354076;19;20010;-61
2023/02/15 01:03:07;;;;;;;;;;;;;;;12.19;46.61;101248.66;7353783;19;20006;-61
2023/02/15 01:05:32;;;;;;;0.00;0.00;;;;;;;12.17;46.00;101246.06;7356752;19;19921;-61
2023/02/15 01:07:59;;;;;;;0.10;0.10;;;;;;;12.16;45.88;101239.09;7352582;19;20037;-62
2023/02/15 01:10:25;;;;;;;0.00;0.00;;;;;;;12.12;45.61;101234.84;7357608;19;20017;-61
2023/02/15 01:12:51;;;;;;;0.08;0.08;;;;;;;12.13;45.61;101222.59;7354899;19;20643;-61
2023/02/15 01:15:17;;;;;;;0.00;0.00;;;;;;;12.00;45.47;101211.50;7357468;19;20454;-61
2023/02/15 01:17:45;;;;;;;0.00;0.00;;;;;;;12.12;45.85;101216.50;7355877;19;20009;-62
2023/02/15 01:20:11;;;;;;;0.08;0.08;;;;;;;12.13;46.20;101210.38;7358317;19;20013;-61
2023/02/15 01:22:37;;;;;;;0.10;0.10;;;;;;;12.14;46.43;101204.22;7347656;19;20007;-61
2023/02/15 01:25:03;;;;;;;0.00;0.00;;;;;;;12.15;46.21;101195.47;7354889;19;20588;-62
2023/02/15 01:27:30;;;;;;;0.00;0.00;;;;;;;12.05;46.16;101166.91;7354101;19;20106;-61
2023/02/15 01:29:56;;;;;;;0.00;0.00;;;;;;;12.18;46.38;101178.84;7357872;19;20003;-61
2023/02/15 01:32:21;;;;;;;0.10;0.10;;;;;;;12.18;46.64;101184.94;7350124;19;20035;-61
2023/02/15 01:34:47;;;;;;;0.00;0.00;;;;;;;12.19;47.02;101181.44;7355675;19;20011;-61
2023/02/15 01:37:12;;;;;;;0.03;0.03;;;;;;;12.19;47.38;101176.19;7352515;19;20052;-61
2023/02/15 01:39:37;;;;;;;0.00;0.00;;;;;;;12.20;47.94;101164.81;7356277;19;20589;-62
2023/02/15 01:42:03;;;;;;;0.00;0.00;;;;;;;12.21;48.45;101165.69;7352064;19;20497;-61
2023/02/15 01:44:53;;;;;;;0.00;0.00;;;;;;;12.20;48.27;101164.81;7356048;19;20259;-61
2023/02/15 01:47:33;;;;;;;0.00;0.00;;;;;;;12.18;48.47;101161.38;7248883;19;2004550;-61
2023/02/15 01:50:16;;;;;;;0.00;0.00;;;;;;;11.86;49.04;101111.47;7354485;19;20010;-61
2023/02/15 01:53:19;;;;;;;0.00;0.00;;;;;;;12.12;48.95;101148.44;7355221;19;20475;-61
2023/02/15 01:56:03;;;;;;;0.00;0.00;;;;;;;12.07;49.30;101146.81;7254586;19;2004232;-60
2023/02/15 01:58:29;;;;;;;0.00;0.00;;;;;;;11.97;50.58;101133.06;7360522;19;20002;-61
2023/02/15 02:00:58;;;;;;;0.00;0.00;;;;;;;11.94;51.02;101125.28;7362824;19;22587;-62
2023/02/15 02:03:54;;;;;;;0.10;0.10;;;;;;;11.98;50.07;101118.22;7353844;19;20721;-61
2023/02/15 02:06:20;;;;;;;0.00;0.00;;;;;;;11.90;51.90;101110.53;7261651;19;2004321;-61
2023/02/15 02:08:46;;;;;;;0.00;0.00;;;;;;;11.86;52.00;101108.84;7361468;19;20018;-61
2023/02/15 02:11:13;;;;;;;0.00;0.00;;;;;;;11.84;52.66;101105.44;7363386;19;20013;-61
2023/02/15 02:13:44;;;;;;;0.00;0.00;;;;;;;11.81;52.09;101092.34;7361406;19;20007;-61
2023/02/15 02:16:27;;;;;;;0.00;0.00;;;;;;;11.76;53.04;101082.03;7360777;19;20577;-61
2023/02/15 02:19:11;;;;;;;0.10;0.10;;;;;;;11.70;53.35;101076.91;7358352;19;20010;-62
2023/02/15 02:21:57;;;;;;;0.00;0.00;;;;;;;11.67;53.22;101071.75;7361935;19;20049;-61
2023/02/15 02:24:52;;;;;;;0.00;0.00;;;;;;;11.61;53.10;101077.13;7359937;19;20367;-61
2023/02/15 02:27:48;;;;;;;0.00;0.00;;;;;;;11.56;52.69;101064.13;7259196;19;2004210;-61
2023/02/15 02:30:32;;;;;;;0.00;0.00;;;;;;;11.52;52.98;101067.69;7252654;19;2004003;-61
2023/02/15 02:33:31;;;;;;;0.08;0.08;;;;;;;11.49;53.27;101059.91;7358229;19;20010;-61
2023/02/15 02:36:00;;;;;;;0.03;0.03;;;;;;;11.42;54.20;101060.94;7255803;19;2004235;-61
2023/02/15 02:38:47;;;;;;;0.00;0.00;;;;;;;11.39;54.40;101056.63;7358246;19;20027;-58
2023/02/15 02:41:21;;;;;;;0.00;0.00;;;;;;;11.34;56.21;101052.38;7362054;19;20254;-61
2023/02/15 02:44:04;;;;;;;0.00;0.00;;;;;;;11.33;56.06;101048.03;7359375;19;20030;-62
2023/02/15 02:46:53;;;;;;;0.05;0.05;;;;;;;11.28;56.24;101052.50;7360107;19;20056;-61
2023/02/15 02:49:33;;;;;;;0.00;0.00;;;;;;;11.28;56.22;101042.91;7358211;19;20021;-61
2023/02/15 02:52:04;;;;;;;0.00;0.00;;;;;;;11.22;57.11;101026.50;7360550;19;20340;-61
2023/02/15 02:54:33;;;;;;;0.00;0.00;;;;;;;11.13;57.60;101011.84;7360990;19;20011;-61
2023/02/15 02:57:03;;;;;;;0.00;0.00;;;;;;;11.20;57.77;101018.66;7358252;19;20010;-61
2023/02/15 02:59:48;;;;;;;0.03;0.03;;;;;;;11.20;56.16;101005.59;7348823;19;20010;-62
2023/02/15 03:02:20;;;;;;;0.00;0.00;;;;;;;10.85;57.97;100954.06;7357996;19;20006;-62
2023/02/15 03:04:49;;;;;;;0.00;0.00;;;;;;;11.15;58.45;101005.72;7358950;19;20014;-61
2023/02/15 03:07:21;;;;;;;0.00;0.00;;;;;;;11.12;58.32;101004.91;7358149;19;20010;-61
2023/02/15 03:09:51;;;;;;;0.00;0.00;;;;;;;10.93;58.14;100965.19;7357450;19;20031;-61
2023/02/15 03:12:21;;;;;;;0.10;0.10;;;;;;;11.12;58.46;100999.66;7358420;19;20074;-61
2023/02/15 03:14:58;;;;;;;0.00;0.00;;;;;;;11.12;57.72;101000.53;7357982;19;20010;-61
2023/02/15 03:17:28;;;;;;;0.00;0.00;;;;;;;11.11;58.33;100992.72;7356844;19;19999;-61
2023/02/15 03:19:57;;;;;;;0.00;0.00;;;;;;;11.09;59.23;100995.34;7353768;19;20011;-61
2023/02/15 03:22:37;;;;;;;0.08;0.08;;;;;;;11.10;58.42;100986.66;7358418;19;20103;-60
2023/02/15 03:25:19;;;;;;;0.00;0.00;;;;;;;11.10;57.92;100991.88;7358199;19;20010;-61
2023/02/15 03:27:54;;;;;;;0.00;0.00;;;;;;;10.95;59.44;100966.03;7343732;19;20839;-62
2023/02/15 03:30:22;;;;;;;0.10;0.10;;;;;;;11.07;59.33;100989.31;7351374;19;20135;-61
2023/02/15 03:32:48;;;;;;;;;;;;;;;11.08;57.21;100980.56;7354733;19;20007;-61
2023/02/15 03:35:14;;;;;;;0.00;0.00;;;;;;;11.03;59.31;100964.13;7357581;19;19930;-61
2023/02/15 03:38:08;;;;;;;0.00;0.00;;;;;;;11.06;59.16;100958.84;7359218;19;20632;-61
2023/02/15 03:43:47;;;;;;;0.10;0.10;;;;;;;10.99;58.96;100938.94;7251950;19;2004561;-61
2023/02/15 03:46:43;;;;;;;0.00;0.00;;;;;;;10.99;58.97;100936.31;7357672;19;20120;-61
2023/02/15 03:49:18;;;;;;;0.00;0.00;;;;;;;10.96;59.35;100933.78;7250807;19;2004517;-61
2023/02/15 03:51:48;;;;;;;0.03;0.03;;;;;;;10.91;59.73;100938.25;7359076;19;20013;-61
2023/02/15 04:02:39;;;;;;;0.00;0.00;;;;;;;10.88;59.13;100939.16;7339790;19;20045;-61
2023/02/15 04:05:05;;;;;;;0.10;0.10;;;;;;;10.85;58.67;100922.72;7360219;19;20010;-61
2023/02/15 04:07:30;;;;;;;0.00;0.00;;;;;;;10.93;59.26;100930.38;7356324;19;20494;-61
2023/02/15 04:10:56;;;;;;;0.10;0.10;;;;;;;10.97;58.94;100943.34;7353868;19;20658;-61
2023/02/15 04:12:50;;;;;;;0.08;0.08;;;;;;;11.05;59.36;100928.38;7251506;19;2004380;-61
2023/02/15 04:18:03;;;;;;;0.00;0.00;;;;;;;11.26;59.69;100913.13;7349285;19;20016;-61
2023/02/15 04:25:56;;;;;;;0.00;0.00;;;;;;;11.47;59.35;100894.34;7358698;19;20009;-61
2023/02/15 04:28:22;;;;;;;0.00;0.00;;;;;;;11.48;59.80;100893.44;7353751;19;20015;-61
2023/02/15 04:30:47;;;;;;;0.00;0.00;;;;;;;11.57;59.22;100897.59;7358397;19;20060;-61
2023/02/15 04:33:12;;;;;;;0.00;0.00;;;;;;;11.49;59.32;100878.59;7357455;19;20006;-61
2023/02/15 04:35:38;;;;;;;0.00;0.00;;;;;;;11.59;59.46;100896.66;7355403;19;20019;-61
2023/02/15 04:38:03;;;;;;;0.00;0.00;;;;;;;11.69;59.16;100886.81;7350897;19;20031;-61
2023/02/15 04:40:29;;;;;;;0.08;0.08;;;;;;;11.62;58.99;100861.72;7358203;19;20143;-61
2023/02/15 04:42:54;;;;;;;0.00;0.00;;;;;;;11.75;59.20;100864.88;7357784;19;20010;-61
2023/02/15 04:45:19;;;;;;;0.00;0.00;;;;;;;11.79;58.55;100866.53;7351940;19;20044;-62
2023/02/15 04:47:45;;;;;;;0.00;0.00;;;;;;;11.84;59.10;100875.16;7358434;19;20033;-61
2023/02/15 04:50:10;;;;;;;0.00;0.00;;;;;;;11.88;59.11;100863.72;7355192;19;20042;-61
2023/02/15 04:52:36;;;;;;;0.00;0.00;;;;;;;11.90;58.77;100864.53;7357086;19;20729;-61
2023/02/15 04:55:01;;;;;;;0.00;0.00;;;;;;;11.96;58.84;100846.03;7355085;19;20003;-61
2023/02/15 04:57:27;;;;;;;0.00;0.00;;;;;;;11.99;59.36;100853.84;7355575;19;20312;-61
2023/02/15 04:59:52;;;;;;;0.10;0.10;;;;;;;12.05;59.52;100860.66;7351625;19;20082;-61
2023/02/15 05:02:18;;;;;;;0.00;0.00;;;;;;;12.07;60.10;100857.13;7357774;19;20031;-62
2023/02/15 05:04:43;;;;;;;0.03;0.03;;;;;;;11.90;60.28;100833.13;7357673;19;20006;-61
2023/02/15 05:07:08;;;;;;;0.00;0.00;;;;;;;12.18;60.33;100889.09;7356812;19;20034;-61
2023/02/15 05:09:34;;;;;;;0.05;0.05;;;;;;;12.23;61.98;100940.50;7354112;19;20018;-61
2023/02/15 05:11:59;;;;;;;0.00;0.00;;;;;;;12.26;61.76;100962.19;7356031;19;20737;-62
2023/02/15 05:14:25;;;;;;;0.10;0.10;;;;;;;12.24;62.38;100991.97;7357048;19;20340;-60
2023/02/15 05:16:50;;;;;;;0.00;0.00;;;;;;;12.13;64.19;100998.31;7359612;19;20015;-60
2023/02/15 05:19:16;;;;;;;0.00;0.00;;;;;;;11.97;64.01;101007.44;7352452;19;20006;-60
2023/02/15 05:21:41;;;;;;;0.00;0.00;;;;;;;11.85;64.06;101018.16;7354270;19;20018;-60
2023/02/15 05:29:35;;;;;;;0.00;0.00;;;;;;;11.29;63.58;101015.84;7361004;19;20551;-60
2023/02/15 05:32:00;;;;;;;0.00;0.00;;;;;;;11.11;64.77;101024.09;7354386;19;22381;-61
2023/02/15 05:34:26;;;;;;;0.00;0.00;;;;;;;10.91;66.01;101016.63;7362314;19;20331;-61
2023/02/15 05:36:51;;;;;;;0.00;0.00;;;;;;;10.74;64.74;101013.47;7361643;19;20413;-61
2023/02/15 05:39:17;;;;;;;0.08;0.08;;;;;;;10.55;64.36;101012.94;7363201;19;20029;-61
2023/02/15 05:41:42;;;;;;;0.05;0.05;;;;;;;10.49;64.31;101028.69;7362289;19;20018;-62
2023/02/15 05:44:07;;;;;;;0.10;0.10;;;;;;;10.38;65.57;101041.94;7363464;19;20015;-61
2023/02/15 05:46:33;;;;;;;0.00;0.00;;;;;;;10.30;65.59;101043.81;7361419;19;20100;-61
2023/02/15 05:48:58;;;;;;;0.00;0.00;;;;;;;10.14;66.80;101033.59;7362257;19;20014;-62
2023/02/15 05:51:24;;;;;;;0.00;0.00;;;;;;;10.05;68.07;101020.69;7360809;19;20674;-62
2023/02/15 05:53:49;;;;;;;0.00;0.00;;;;;;;9.85;68.20;100994.03;7360117;19;20015;-61
2023/02/15 05:56:14;;;;;;;0.00;0.00;;;;;;;9.96;67.61;101028.66;7359456;19;20296;-62
2023/02/15 05:58:41;;;;;;;0.00;0.00;;;;;;;9.86;67.57;101027.06;7361930;19;20338;-61
2023/02/15 06:01:11;;;;;;;0.00;0.00;;;;;;;9.31;67.64;100939.19;7358528;19;20908;-62
2023/02/15 06:03:36;;;;;;;0.08;0.08;;;;;;;9.77;68.68;101035.00;7359344;19;20710;-62
2023/02/15 06:06:04;;;;;;;0.00;0.00;;;;;;;9.76;69.17;101031.53;7361171;19;22589;-61
2023/02/15 06:08:30;;;;;;;0.00;0.00;;;;;;;9.77;67.63;101048.91;7357670;19;20003;-62
2023/02/15 06:10:55;;;;;;;0.00;0.00;;;;;;;9.62;68.13;101029.13;7355303;19;20018;-62
2023/02/15 06:13:21;;;;;;;0.00;0.00;;;;;;;9.54;68.29;101036.19;7362055;19;20106;-62
2023/02/15 06:15:46;;;;;;;0.00;0.00;;;;;;;9.68;68.66;101053.38;7361616;19;20022;-61
2023/02/15 06:18:12;;;;;;;0.00;0.00;;;;;;;9.54;69.50;101044.00;7360579;19;20791;-62
2023/02/15 06:20:37;;;;;;;0.00;0.00;;;;;;;9.54;69.17;101051.84;7358964;19;20006;-62
2023/02/15 06:23:03;;;;;;;0.00;0.00;;;;;;;9.59;68.50;101055.25;7358886;19;20039;-62
2023/02/15 06:25:28;;;;;;;0.00;0.00;;;;;;;9.54;68.80;101064.88;7358400;19;20010;-62
2023/02/15 06:27:54;;;;;;;0.00;0.00;;;;;;;9.47;69.99;101055.38;7359511;19;19999;-61
2023/02/15 06:30:20;;;;;;;0.10;0.10;;;;;;;9.52;70.42;101065.75;7363018;19;20014;-61
2023/02/15 06:32:45;;;;;;;0.00;0.00;;;;;;;9.55;70.40;101076.16;7358388;19;20058;-61
2023/02/15 06:35:11;;;;;;;0.00;0.00;;;;;;;9.49;70.67;101064.06;7361485;19;20011;-62
2023/02/15 06:37:37;;;;;;;0.00;0.00;;;;;;;9.35;70.21;101045.13;7358170;19;20030;-61
2023/02/15 06:40:03;;;;;;;0.00;0.00;;;;;;;9.39;70.47;101062.44;7356774;19;20475;-62
2023/02/15 06:42:29;;;;;;;0.00;0.00;;;;;;;9.39;70.33;101067.66;7360894;19;20085;-61
2023/02/15 06:44:55;;;;;;;0.00;0.00;;;;;;;9.34;68.22;101053.81;7362062;19;20065;-61
2023/02/15 06:47:20;;;;;;;0.00;0.00;;;;;;;9.28;70.37;101065.19;7358738;19;20007;-61
2023/02/15 06:49:45;;;;;;;0.00;0.00;;;;;;;9.44;69.63;101072.81;7359398;19;20459;-61
2023/02/15 06:52:11;;;;;;;0.00;0.00;;;;;;;9.40;69.91;101068.53;7351974;19;20004;-61
2023/02/15 06:54:36;;;;;;;0.00;0.00;;;;;;;9.41;70.27;101083.28;7359283;19;20044;-61
2023/02/15 06:57:02;;;;;;;0.00;0.00;;;;;;;9.38;71.00;101096.34;7358916;19;20006;-61
2023/02/15 06:59:27;;;;;;;0.00;0.00;;;;;;;9.35;70.21;101097.25;7350200;19;20013;-61
2023/02/15 07:01:53;;;;;;;0.00;0.00;;;;;;;9.36;70.70;101098.97;7357830;19;20010;-61
2023/02/15 07:04:18;;;;;;;0.00;0.00;;;;;;;9.24;71.35;101083.47;7351645;19;20084;-61
2023/02/15 07:06:43;;;;;;;0.00;0.00;;;;;;;9.31;70.27;101098.16;7358309;19;20006;-60
2023/02/15 07:09:09;;;;;;;0.00;0.00;;;;;;;9.29;70.74;101094.72;7352708;19;20013;-61
2023/02/15 07:14:19;;;;;;;0.00;0.00;;;;;;;9.22;70.77;101085.22;7354126;19;20541;-61
2023/02/15 07:16:44;;;;;;;0.00;0.00;;;;;;;9.09;71.30;101064.53;7360130;19;19999;-61
2023/02/15 07:19:10;;;;;;;0.00;0.00;;;;;;;9.21;70.63;101092.19;7358597;19;20010;-60
2023/02/15 07:21:35;;;;;;;0.00;0.00;;;;;;;9.20;69.81;101097.41;7355825;19;20023;-61
2023/02/15 07:24:02;;;;;;;0.00;0.00;;;;;;;9.19;71.87;101095.69;7359854;19;20459;-61
2023/02/15 07:26:27;;;;;;;0.00;0.00;;;;;;;9.13;70.69;101080.13;7353208;19;20060;-61
2023/02/15 07:28:53;;;;;;;0.00;0.00;;;;;;;9.16;70.27;101082.69;7358310;19;20573;-61
2023/02/15 07:31:18;;;;;;;0.00;0.00;;;;;;;9.09;70.87;101077.56;7359088;19;20742;-61
2023/02/15 07:33:44;;;;;;;0.00;0.00;;;;;;;9.12;70.91;101073.19;7356064;19;20785;-61
2023/02/15 07:36:11;;;;;;;0.00;0.00;;;;;;;9.09;70.26;101054.09;7347254;19;20002;-61
2023/02/15 07:38:38;;;;;;;;;;;;;;;9.09;67.12;101048.88;7357573;19;20106;-62
2023/02/15 07:41:05;;;;;;;0.00;0.00;;;;;;;9.00;69.25;101040.31;7360741;19;20558;-61
2023/02/15 07:43:36;;;;;;;0.00;0.00;;;;;;;8.95;70.04;101050.78;7356207;19;20091;-61
2023/02/15 07:46:04;;;;;;;0.10;0.10;;;;;;;8.99;70.73;101049.88;7349563;19;20007;-61
2023/02/15 07:48:30;;;;;;;0.00;0.00;;;;;;;8.94;72.18;101049.06;7352784;19;20011;-61
2023/02/15 07:51:00;;;;;;;0.00;0.00;;;;;;;8.93;71.78;101057.75;7355241;19;20117;-62
2023/02/15 07:53:25;;;;;;;0.00;0.00;;;;;;;8.89;71.01;101060.41;7355210;19;20010;-62
2023/02/15 07:55:52;;;;;;;0.00;0.00;;;;;;;8.82;71.99;101050.06;7354979;19;20589;-62
2023/02/15 07:58:17;;;;;;;0.00;0.00;;;;;;;8.70;72.20;101033.66;7353640;19;20846;-61
2023/02/15 08:01:00;;;;;;;0.00;0.00;;;;;;;8.85;72.04;101051.75;7356360;19;20101;-62
2023/02/15 08:03:28;;;;;;;0.00;0.00;;;;;;;8.77;73.04;101040.56;7346457;19;20778;-62
2023/02/15 08:05:58;;;;;;;;;;;;;;;8.90;68.92;101047.34;7357737;19;20023;-62
2023/02/15 08:08:30;;;;;;;0.10;0.10;;;;;;;8.87;72.36;101050.00;7357001;19;19918;-61
2023/02/15 08:13:58;;;;;;;0.00;0.00;;;;;;;8.83;72.14;101056.97;7355741;19;20465;-62
2023/02/15 08:16:33;;;;;;;0.00;0.00;;;;;;;8.84;72.11;101070.88;7354369;19;20503;-62
2023/02/15 08:19:00;;;;;;;0.00;0.00;;;;;;;8.84;72.08;101076.06;7355452;19;20358;-62
2023/02/15 08:21:28;;;;;;;0.00;0.00;;;;;;;8.82;71.78;101070.03;7352624;19;20517;-62
2023/02/15 08:23:54;;;;;;;0.00;0.00;;;;;;;8.75;70.71;101069.19;7346186;19;20014;-62
2023/02/15 08:26:20;;;;;;;0.00;0.00;;;;;;;8.83;71.79;101082.16;7346996;19;20010;-62
2023/02/15 08:28:46;;;;;;;0.00;0.00;;;;;;;8.70;71.71;101054.50;7348557;19;20492;-62
2023/02/15 08:31:13;;;;;;;0.08;0.08;;;;;;;8.75;70.75;101063.13;7346486;19;20031;-62
2023/02/15 08:33:40;;;;;;;0.00;0.00;;;;;;;8.80;71.32;101076.97;7351034;19;20034;-62
2023/02/15 08:36:17;;;;;;;0.10;0.10;;;;;;;8.81;71.02;101078.69;7343425;19;20573;-62
2023/02/15 08:38:43;;;;;;;0.00;0.00;;;;;;;8.78;70.57;101078.75;7347693;19;20777;-62
2023/02/15 08:41:14;;;;;;;0.10;0.10;;;;;;;8.81;70.70;101079.56;7349143;19;20018;-62
2023/02/15 08:43:40;;;;;;;0.00;0.00;;;;;;;8.78;71.91;101079.59;7349250;19;20070;-62
2023/02/15 08:46:06;;;;;;;0.10;0.10;;;;;;;8.78;71.55;101078.75;7347690;19;20113;-63
2023/02/15 08:48:32;;;;;;;0.00;0.00;;;;;;;8.56;71.42;101050.28;7342451;19;20716;-62
2023/02/15 08:50:57;;;;;;;0.08;0.08;;;;;;;8.76;71.72;101080.47;7350214;19;20089;-63
2023/02/15 08:53:23;;;;;;;0.00;0.00;;;;;;;8.76;71.38;101083.06;7341347;19;21626;-63
2023/02/15 08:55:58;;;;;;;0.00;0.00;;;;;;;8.80;70.25;101076.97;7344947;19;20002;-63
2023/02/15 08:58:24;;;;;;;0.00;0.00;;;;;;;8.78;71.18;101074.38;7340825;19;20919;-62
2023/02/15 09:00:49;;;;;;;0.00;0.00;;;;;;;8.49;71.57;101034.75;7313951;19;20014;-62
2023/02/15 09:03:15;;;;;;;0.00;0.00;;;;;;;8.76;70.85;101085.69;7335088;19;20129;-63
2023/02/15 09:05:40;;;;;;;0.00;0.00;;;;;;;8.62;71.48;101061.50;7339763;19;20007;-63
2023/02/15 09:08:05;;;;;;;0.00;0.00;;;;;;;8.75;72.04;101094.38;7337224;19;20018;-63
2023/02/15 09:10:31;;;;;;;0.00;0.00;;;;;;;8.70;72.01;101090.94;7341012;19;20051;-63
2023/02/15 09:12:56;;;;;;;0.00;0.00;;;;;;;8.72;71.47;101094.44;7338072;19;20010;-63
2023/02/15 09:15:22;;;;;;;0.00;0.00;;;;;;;8.61;70.82;101078.00;7342204;19;20010;-63
2023/02/15 09:17:47;;;;;;;0.00;0.00;;;;;;;8.75;70.87;101104.78;7314304;19;20010;-62
2023/02/15 09:20:13;;;;;;;0.00;0.00;;;;;;;8.78;71.52;101108.25;7336936;19;20015;-63
2023/02/15 09:22:38;;;;;;;0.00;0.00;;;;;;;8.83;71.99;101113.41;7338028;19;20006;-63
2023/02/15 09:25:04;;;;;;;0.00;0.00;;;;;;;8.93;72.10;101107.25;7341646;19;20021;-63
2023/02/15 09:27:30;;;;;;;0.00;0.00;;;;;;;9.09;72.50;101110.56;7342901;19;20921;-63
2023/02/15 09:29:55;;;;;;;0.10;0.10;;;;;;;9.17;72.55;101098.28;7341423;19;20021;-63
2023/02/15 09:32:21;;;;;;;0.00;0.00;;;;;;;9.45;72.30;101111.91;7338439;19;20035;-63
2023/02/15 09:34:47;;;;;;;0.00;0.00;;;;;;;9.72;72.72;101107.22;7343581;19;20087;-63
2023/02/15 09:37:13;;;;;;;0.00;0.00;;;;;;;9.98;72.40;101126.00;7346330;19;20026;-63
2023/02/15 09:39:42;;;;;;;0.00;0.00;;;;;;;10.24;72.41;101107.44;7320795;19;20051;-63
2023/02/15 09:42:49;;;;;;;0.00;0.00;;;;;;;10.53;72.44;101109.56;7346772;19;20037;-63
2023/02/15 09:45:42;;;;;;;0.00;0.00;;;;;;;10.86;72.29;101117.75;7238556;19;2004388;-63
2023/02/15 09:48:38;;;;;;;0.00;0.00;;;;;;;11.14;72.06;101118.97;7342068;19;20826;-63
2023/02/15 09:51:22;;;;;;;0.00;0.00;;;;;;;11.31;71.89;101115.19;7236134;19;2004364;-63
2023/02/15 09:54:10;;;;;;;0.00;0.00;;;;;;;11.52;71.38;101109.53;7347250;19;20054;-63
2023/02/15 09:56:47;;;;;;;0.08;0.08;;;;;;;11.78;71.46;101121.22;7343970;19;20488;-63
2023/02/15 09:59:28;;;;;;;0.00;0.00;;;;;;;11.94;71.56;101123.50;7345676;19;20051;-63
2023/02/15 10:02:05;;;;;;;0.00;0.00;;;;;;;12.15;70.82;101111.69;7339533;19;20030;-63
2023/02/15 10:05:00;;;;;;;0.00;0.00;;;;;;;12.33;70.74;101120.91;7345151;19;20023;-63
2023/02/15 10:07:58;;;;;;;0.00;0.00;;;;;;;12.56;70.84;101127.34;7238600;19;2004446;-62
2023/02/15 10:10:26;;;;;;;0.05;0.05;;;;;;;12.75;70.52;101133.00;7235262;19;2004287;-63
2023/02/15 10:13:21;;;;;;;0.03;0.03;;;;;;;12.72;70.01;101098.13;7344703;19;20145;-63
2023/02/15 10:16:01;;;;;;;0.00;0.00;;;;;;;13.04;69.92;101143.63;7237084;19;2004308;-63
2023/02/15 10:18:29;;;;;;;0.10;0.10;;;;;;;13.07;69.32;101130.41;7346716;19;20003;-63
2023/02/15 10:21:02;;;;;;;0.00;0.00;;;;;;;13.09;68.79;101130.41;7346524;19;20015;-62
2023/02/15 10:23:51;;;;;;;0.00;0.00;;;;;;;13.15;69.60;101136.34;7346592;19;20463;-63
2023/02/15 10:26:33;;;;;;;0.00;0.00;;;;;;;13.21;69.97;101144.06;7344773;19;20045;-62
2023/02/15 10:29:04;;;;;;;0.10;0.10;;;;;;;13.32;69.83;101132.44;7345523;19;20018;-63
2023/02/15 10:31:44;;;;;;;0.00;0.00;;;;;;;13.58;70.08;101132.56;7334980;19;20035;-63
2023/02/15 10:34:20;;;;;;;0.03;0.03;;;;;;;13.69;69.80;101138.38;7339769;19;20026;-62
2023/02/15 10:37:04;;;;;;;0.00;0.00;;;;;;;13.97;69.49;101145.44;7342355;19;20014;-62
2023/02/15 10:39:54;;;;;;;0.00;0.00;;;;;;;14.20;69.88;101143.00;7346153;19;20465;-63
2023/02/15 10:42:40;;;;;;;0.00;0.00;;;;;;;14.26;68.77;101140.19;7344222;19;20466;-63
2023/02/15 10:45:26;;;;;;;0.10;0.10;;;;;;;14.37;69.39;101138.97;7345325;19;20553;-62
2023/02/15 10:48:10;;;;;;;0.10;0.10;;;;;;;14.36;68.13;101140.75;7343071;19;20010;-62
2023/02/15 10:50:44;;;;;;;0.10;0.10;;;;;;;14.29;67.76;101139.22;7346030;19;20014;-62
2023/02/15 10:53:21;;;;;;;0.00;0.00;;;;;;;14.22;68.12;101146.44;7344654;19;20011;-62
2023/02/15 10:56:20;;;;;;;0.00;0.00;;;;;;;14.12;68.02;101136.25;7340875;19;20462;-62
2023/02/15 10:58:55;;;;;;;0.00;0.00;;;;;;;13.94;67.47;101137.69;7244629;19;2004224;-62
2023/02/15 11:01:51;;;;;;;0.00;0.00;;;;;;;13.82;67.79;101141.50;7345010;19;20990;-62
2023/02/15 11:04:22;;;;;;;0.00;0.00;;;;;;;13.63;67.43;101146.41;7241263;19;2004256;-62
2023/02/15 11:06:54;;;;;;;0.00;0.00;;;;;;;13.52;67.20;101145.84;7342662;19;20011;-62
2023/02/15 11:09:23;;;;;;;0.00;0.00;;;;;;;13.35;67.58;101143.72;7346479;19;20465;-62
2023/02/15 11:11:53;;;;;;;0.00;0.00;;;;;;;13.24;67.50;101164.13;7339980;19;20105;-61
2023/02/15 11:14:27;;;;;;;0.00;0.00;;;;;;;13.09;67.66;101152.22;7344454;19;20010;-62
2023/02/15 11:16:57;;;;;;;0.00;0.00;;;;;;;12.78;68.07;101112.84;7343493;19;20011;-62
2023/02/15 11:19:30;;;;;;;0.00;0.00;;;;;;;12.85;68.02;101152.84;7346098;19;20348;-61
2023/02/15 11:22:00;;;;;;;0.00;0.00;;;;;;;12.72;68.37;101149.66;7343671;19;20021;-61
2023/02/15 11:24:30;;;;;;;0.00;0.00;;;;;;;12.67;68.45;101157.66;7343721;19;20010;-61
2023/02/15 11:27:12;;;;;;;0.10;0.10;;;;;;;12.61;68.50;101157.78;7337334;19;20006;-62
2023/02/15 11:29:44;;;;;;;0.10;0.10;;;;;;;12.50;68.40;101149.31;7345038;19;20014;-61
2023/02/15 11:32:23;;;;;;;0.00;0.00;;;;;;;12.51;68.72;101161.50;7344839;19;20007;-61
2023/02/15 11:35:12;;;;;;;0.10;0.10;;;;;;;12.47;68.36;101159.88;7345085;19;20521;-61
2023/02/15 11:37:41;;;;;;;0.00;0.00;;;;;;;12.28;69.62;101137.63;7343065;19;20018;-62
2023/02/15 11:40:25;;;;;;;0.00;0.00;;;;;;;12.40;69.14;101150.44;7343327;19;20027;-62
2023/02/15 11:42:54;;;;;;;0.00;0.00;;;;;;;12.43;69.26;101163.47;7345806;19;20014;-62
2023/02/15 11:45:34;;;;;;;0.00;0.00;;;;;;;12.46;68.70;101163.38;7337667;19;20848;-62
2023/02/15 11:48:01;;;;;;;0.00;0.00;;;;;;;12.47;68.65;101175.59;7343031;19;20053;-61
2023/02/15 11:50:32;;;;;;;0.00;0.00;;;;;;;12.50;68.99;101164.16;7338496;19;20831;-61
2023/02/15 11:53:05;;;;;;;0.00;0.00;;;;;;;12.51;69.26;101171.13;7339825;19;20422;-62
2023/02/15 11:55:33;;;;;;;0.10;0.10;;;;;;;12.50;69.56;101174.66;7343136;19;20014;-62
2023/02/15 11:58:17;;;;;;;0.00;0.00;;;;;;;12.53;68.91;101172.84;7342028;19;20018;-61
2023/02/15 12:00:47;;;;;;;0.00;0.00;;;;;;;12.62;69.58;101175.25;7339606;19;20018;-61
2023/02/15 12:03:28;;;;;;;0.00;0.00;;;;;;;12.68;68.45;101185.56;7344239;19;20788;-62
2023/02/15 12:06:01;;;;;;;0.08;0.08;;;;;;;12.68;69.18;101180.34;7342791;19;20638;-61
2023/02/15 12:08:37;;;;;;;0.10;0.10;;;;;;;12.65;68.32;101172.53;7344125;19;21007;-61
2023/02/15 12:11:11;;;;;;;0.10;0.10;;;;;;;12.70;68.30;101177.66;7343196;19;20006;-61
2023/02/15 12:13:54;;;;;;;0.00;0.00;;;;;;;12.75;67.75;101188.91;7341932;19;20070;-61
2023/02/15 12:16:19;;;;;;;0.10;0.10;;;;;;;12.73;68.09;101173.22;7343832;19;20857;-62